sensor_id;sensor_type;location;lat;lon;timestamp;temperature;humidity
45283;DHT22;31023;44.994;1.796;2022-09-03T00:02:13;18.80;99.90
45283;DHT22;31023;44.994;1.796;2022-09-03T00:05:04;18.80;99.90
45283;DHT22;31023;44.994;1.796;2022-09-03T00:07:34;18.80;99.90
45283;DHT22;31023;44.994;1.796;2022-09-03T00:10:04;18.90;99.90
45283;DHT22;31023;44.994;1.796;2022-09-03T00:12:31;19.00;99.90
45283;DHT22;31023;44.994;1.796;2022-09-03T00:17:58;19.10;99.90
45283;DHT22;31023;44.994;1.796;2022-09-03T00:20:32;19.10;99.90
45283;DHT22;31023;44.994;1.796;2022-09-03T00:22:59;19.20;99.90
45283;DHT22;31023;44.994;1.796;2022-09-03T00:25:28;19.00;99.90
45283;DHT22;31023;44.994;1.796;2022-09-03T00:27:55;18.80;99.90
45283;DHT22;31023;44.994;1.796;2022-09-03T00:30:22;18.80;99.90
45283;DHT22;31023;44.994;1.796;2022-09-03T00:32:54;18.90;99.90
45283;DHT22;31023;44.994;1.796;2022-09-03T00:35:26;18.90;99.90
45283;DHT22;31023;44.994;1.796;2022-09-03T00:37:53;18.90;99.90
45283;DHT22;31023;44.994;1.796;2022-09-03T00:40:30;18.80;99.90
45283;DHT22;31023;44.994;1.796;2022-09-03T00:46:14;18.60;99.90
45283;DHT22;31023;44.994;1.796;2022-09-03T00:48:38;18.50;99.90
45283;DHT22;31023;44.994;1.796;2022-09-03T00:54:02;18.30;99.90
45283;DHT22;31023;44.994;1.796;2022-09-03T00:59:10;18.10;99.90
45283;DHT22;31023;44.994;1.796;2022-09-03T01:01:45;18.10;99.90
45283;DHT22;31023;44.994;1.796;2022-09-03T01:11:50;17.90;99.90
45283;DHT22;31023;44.994;1.796;2022-09-03T01:16:54;18.00;99.90
45283;DHT22;31023;44.994;1.796;2022-09-03T01:34:48;17.80;99.90
45283;DHT22;31023;44.994;1.796;2022-09-03T01:53:22;18.40;99.90
45283;DHT22;31023;44.994;1.796;2022-09-03T01:58:34;18.50;99.90
45283;DHT22;31023;44.994;1.796;2022-09-03T02:01:04;18.40;99.90
45283;DHT22;31023;44.994;1.796;2022-09-03T02:03:37;18.20;99.90
45283;DHT22;31023;44.994;1.796;2022-09-03T02:06:03;17.90;99.90
45283;DHT22;31023;44.994;1.796;2022-09-03T02:08:32;17.80;99.90
45283;DHT22;31023;44.994;1.796;2022-09-03T02:10:57;17.70;99.90
45283;DHT22;31023;44.994;1.796;2022-09-03T02:15:56;17.80;99.90
45283;DHT22;31023;44.994;1.796;2022-09-03T02:18:24;17.70;99.90
45283;DHT22;31023;44.994;1.796;2022-09-03T02:20:54;17.70;99.90
45283;DHT22;31023;44.994;1.796;2022-09-03T02:23:20;17.70;99.90
45283;DHT22;31023;44.994;1.796;2022-09-03T02:25:47;17.60;99.90
45283;DHT22;31023;44.994;1.796;2022-09-03T02:28:14;17.70;99.90
45283;DHT22;31023;44.994;1.796;2022-09-03T02:30:40;17.70;99.90
45283;DHT22;31023;44.994;1.796;2022-09-03T02:33:06;17.70;99.90
45283;DHT22;31023;44.994;1.796;2022-09-03T02:35:31;17.70;99.90
45283;DHT22;31023;44.994;1.796;2022-09-03T02:38:07;17.60;99.90
45283;DHT22;31023;44.994;1.796;2022-09-03T02:40:33;17.50;99.90
45283;DHT22;31023;44.994;1.796;2022-09-03T02:42:59;17.50;99.90
45283;DHT22;31023;44.994;1.796;2022-09-03T02:45:26;17.50;99.90
45283;DHT22;31023;44.994;1.796;2022-09-03T02:47:54;17.50;99.90
45283;DHT22;31023;44.994;1.796;2022-09-03T02:50:20;17.40;99.90
45283;DHT22;31023;44.994;1.796;2022-09-03T02:52:45;17.40;99.90
45283;DHT22;31023;44.994;1.796;2022-09-03T02:55:11;17.40;99.90
45283;DHT22;31023;44.994;1.796;2022-09-03T02:57:37;17.50;99.90
45283;DHT22;31023;44.994;1.796;2022-09-03T03:00:02;17.60;99.90
45283;DHT22;31023;44.994;1.796;2022-09-03T03:02:28;17.50;99.90
45283;DHT22;31023;44.994;1.796;2022-09-03T03:04:53;17.60;99.90
45283;DHT22;31023;44.994;1.796;2022-09-03T03:07:19;17.50;99.90
45283;DHT22;31023;44.994;1.796;2022-09-03T03:09:45;17.50;99.90
45283;DHT22;31023;44.994;1.796;2022-09-03T03:12:11;17.50;99.90
45283;DHT22;31023;44.994;1.796;2022-09-03T03:14:36;17.60;99.90
45283;DHT22;31023;44.994;1.796;2022-09-03T03:17:02;17.60;99.90
45283;DHT22;31023;44.994;1.796;2022-09-03T03:19:27;17.70;99.90
45283;DHT22;31023;44.994;1.796;2022-09-03T03:21:53;17.70;99.90
45283;DHT22;31023;44.994;1.796;2022-09-03T03:24:18;17.70;99.90
45283;DHT22;31023;44.994;1.796;2022-09-03T03:26:44;17.90;99.90
45283;DHT22;31023;44.994;1.796;2022-09-03T03:29:13;18.00;99.90
45283;DHT22;31023;44.994;1.796;2022-09-03T03:31:38;18.00;99.90
45283;DHT22;31023;44.994;1.796;2022-09-03T03:34:04;18.00;99.90
45283;DHT22;31023;44.994;1.796;2022-09-03T03:36:30;18.00;99.90
45283;DHT22;31023;44.994;1.796;2022-09-03T03:38:57;18.00;99.90
45283;DHT22;31023;44.994;1.796;2022-09-03T03:41:24;18.00;99.90
45283;DHT22;31023;44.994;1.796;2022-09-03T03:43:53;17.90;99.90
45283;DHT22;31023;44.994;1.796;2022-09-03T03:46:19;17.80;99.90
45283;DHT22;31023;44.994;1.796;2022-09-03T03:48:46;17.90;99.90
45283;DHT22;31023;44.994;1.796;2022-09-03T03:51:12;17.90;99.90
45283;DHT22;31023;44.994;1.796;2022-09-03T03:53:37;17.90;99.90
45283;DHT22;31023;44.994;1.796;2022-09-03T03:56:04;17.90;99.90
45283;DHT22;31023;44.994;1.796;2022-09-03T03:58:31;17.90;99.90
45283;DHT22;31023;44.994;1.796;2022-09-03T04:01:04;17.80;99.90
45283;DHT22;31023;44.994;1.796;2022-09-03T04:03:29;17.90;99.90
45283;DHT22;31023;44.994;1.796;2022-09-03T04:05:55;17.80;99.90
45283;DHT22;31023;44.994;1.796;2022-09-03T04:08:21;17.80;99.90
45283;DHT22;31023;44.994;1.796;2022-09-03T04:10:47;17.90;99.90
45283;DHT22;31023;44.994;1.796;2022-09-03T04:13:13;17.90;99.90
45283;DHT22;31023;44.994;1.796;2022-09-03T04:15:38;17.90;99.90
45283;DHT22;31023;44.994;1.796;2022-09-03T04:18:04;18.00;99.90
45283;DHT22;31023;44.994;1.796;2022-09-03T04:20:29;17.90;99.90
45283;DHT22;31023;44.994;1.796;2022-09-03T04:22:58;18.00;99.90
45283;DHT22;31023;44.994;1.796;2022-09-03T04:25:25;18.00;99.90
45283;DHT22;31023;44.994;1.796;2022-09-03T04:27:50;18.00;99.90
45283;DHT22;31023;44.994;1.796;2022-09-03T04:30:16;18.10;99.90
45283;DHT22;31023;44.994;1.796;2022-09-03T04:32:42;18.20;99.90
45283;DHT22;31023;44.994;1.796;2022-09-03T04:35:20;18.20;99.90
45283;DHT22;31023;44.994;1.796;2022-09-03T04:37:46;18.20;99.90
45283;DHT22;31023;44.994;1.796;2022-09-03T04:40:12;18.20;99.90
45283;DHT22;31023;44.994;1.796;2022-09-03T04:42:37;18.30;99.90
45283;DHT22;31023;44.994;1.796;2022-09-03T04:45:03;18.20;99.90
45283;DHT22;31023;44.994;1.796;2022-09-03T04:47:29;18.20;99.90
45283;DHT22;31023;44.994;1.796;2022-09-03T04:49:54;18.20;99.90
45283;DHT22;31023;44.994;1.796;2022-09-03T04:52:20;18.20;99.90
45283;DHT22;31023;44.994;1.796;2022-09-03T04:54:45;18.20;99.90
45283;DHT22;31023;44.994;1.796;2022-09-03T04:57:11;18.30;99.90
45283;DHT22;31023;44.994;1.796;2022-09-03T04:59:37;18.20;99.90
45283;DHT22;31023;44.994;1.796;2022-09-03T05:02:03;18.30;99.90
45283;DHT22;31023;44.994;1.796;2022-09-03T05:04:29;18.30;99.90
45283;DHT22;31023;44.994;1.796;2022-09-03T05:06:54;18.30;99.90
45283;DHT22;31023;44.994;1.796;2022-09-03T05:09:20;18.20;99.90
45283;DHT22;31023;44.994;1.796;2022-09-03T05:11:45;18.20;99.90
45283;DHT22;31023;44.994;1.796;2022-09-03T05:14:11;18.20;99.90
45283;DHT22;31023;44.994;1.796;2022-09-03T05:16:37;18.20;99.90
45283;DHT22;31023;44.994;1.796;2022-09-03T05:19:02;18.30;99.90
45283;DHT22;31023;44.994;1.796;2022-09-03T05:21:30;18.30;99.90
45283;DHT22;31023;44.994;1.796;2022-09-03T05:23:56;18.20;99.90
45283;DHT22;31023;44.994;1.796;2022-09-03T05:26:23;18.10;99.90
45283;DHT22;31023;44.994;1.796;2022-09-03T05:28:52;18.20;99.90
45283;DHT22;31023;44.994;1.796;2022-09-03T05:31:18;18.20;99.90
45283;DHT22;31023;44.994;1.796;2022-09-03T05:33:45;18.20;99.90
45283;DHT22;31023;44.994;1.796;2022-09-03T05:36:11;18.20;99.90
45283;DHT22;31023;44.994;1.796;2022-09-03T05:38:37;18.20;99.90
45283;DHT22;31023;44.994;1.796;2022-09-03T05:41:04;18.30;99.90
45283;DHT22;31023;44.994;1.796;2022-09-03T05:43:30;18.30;99.90
45283;DHT22;31023;44.994;1.796;2022-09-03T05:45:56;18.20;99.90
45283;DHT22;31023;44.994;1.796;2022-09-03T05:48:22;18.30;99.90
45283;DHT22;31023;44.994;1.796;2022-09-03T05:50:47;18.30;99.90
45283;DHT22;31023;44.994;1.796;2022-09-03T05:53:13;18.40;99.90
45283;DHT22;31023;44.994;1.796;2022-09-03T05:55:39;18.60;99.90
45283;DHT22;31023;44.994;1.796;2022-09-03T05:58:05;18.60;99.90
45283;DHT22;31023;44.994;1.796;2022-09-03T06:00:31;18.80;99.90
45283;DHT22;31023;44.994;1.796;2022-09-03T06:02:56;18.60;99.90
45283;DHT22;31023;44.994;1.796;2022-09-03T06:05:22;18.70;99.90
45283;DHT22;31023;44.994;1.796;2022-09-03T06:07:48;18.80;99.90
45283;DHT22;31023;44.994;1.796;2022-09-03T06:10:14;18.90;99.90
45283;DHT22;31023;44.994;1.796;2022-09-03T06:12:41;18.90;99.90
45283;DHT22;31023;44.994;1.796;2022-09-03T06:15:07;18.90;99.90
45283;DHT22;31023;44.994;1.796;2022-09-03T06:17:32;18.90;99.90
45283;DHT22;31023;44.994;1.796;2022-09-03T06:19:58;19.00;99.90
45283;DHT22;31023;44.994;1.796;2022-09-03T06:22:24;18.90;99.90
45283;DHT22;31023;44.994;1.796;2022-09-03T06:24:52;18.90;99.90
45283;DHT22;31023;44.994;1.796;2022-09-03T06:27:18;19.10;99.90
45283;DHT22;31023;44.994;1.796;2022-09-03T06:29:45;19.10;99.90
45283;DHT22;31023;44.994;1.796;2022-09-03T06:32:11;19.10;99.90
45283;DHT22;31023;44.994;1.796;2022-09-03T06:34:36;19.20;99.90
45283;DHT22;31023;44.994;1.796;2022-09-03T06:37:02;19.20;99.90
45283;DHT22;31023;44.994;1.796;2022-09-03T06:39:27;19.20;99.90
45283;DHT22;31023;44.994;1.796;2022-09-03T06:41:53;19.20;99.90
45283;DHT22;31023;44.994;1.796;2022-09-03T06:44:19;19.40;99.90
45283;DHT22;31023;44.994;1.796;2022-09-03T06:46:44;19.30;99.90
45283;DHT22;31023;44.994;1.796;2022-09-03T06:49:13;19.30;99.90
45283;DHT22;31023;44.994;1.796;2022-09-03T06:51:39;19.50;99.90
45283;DHT22;31023;44.994;1.796;2022-09-03T06:54:05;19.80;99.90
45283;DHT22;31023;44.994;1.796;2022-09-03T06:56:31;20.90;99.90
45283;DHT22;31023;44.994;1.796;2022-09-03T06:58:58;20.70;99.90
45283;DHT22;31023;44.994;1.796;2022-09-03T07:01:25;20.20;99.90
45283;DHT22;31023;44.994;1.796;2022-09-03T07:03:52;20.20;99.90
45283;DHT22;31023;44.994;1.796;2022-09-03T07:06:20;20.30;99.90
45283;DHT22;31023;44.994;1.796;2022-09-03T07:08:46;20.30;99.90
45283;DHT22;31023;44.994;1.796;2022-09-03T07:11:12;20.50;99.90
45283;DHT22;31023;44.994;1.796;2022-09-03T07:13:40;20.40;99.90
45283;DHT22;31023;44.994;1.796;2022-09-03T07:16:07;20.50;99.90
45283;DHT22;31023;44.994;1.796;2022-09-03T07:18:33;20.50;99.90
45283;DHT22;31023;44.994;1.796;2022-09-03T07:21:00;20.50;99.90
45283;DHT22;31023;44.994;1.796;2022-09-03T07:23:26;20.40;99.90
45283;DHT22;31023;44.994;1.796;2022-09-03T07:25:52;20.30;99.90
45283;DHT22;31023;44.994;1.796;2022-09-03T07:28:18;20.30;99.90
45283;DHT22;31023;44.994;1.796;2022-09-03T07:30:44;20.40;99.90
45283;DHT22;31023;44.994;1.796;2022-09-03T07:33:09;20.40;99.90
45283;DHT22;31023;44.994;1.796;2022-09-03T07:35:35;20.40;99.90
45283;DHT22;31023;44.994;1.796;2022-09-03T07:38:01;20.40;99.90
45283;DHT22;31023;44.994;1.796;2022-09-03T07:40:26;20.90;99.90
45283;DHT22;31023;44.994;1.796;2022-09-03T07:42:56;21.00;99.90
45283;DHT22;31023;44.994;1.796;2022-09-03T07:45:26;20.50;99.90
45283;DHT22;31023;44.994;1.796;2022-09-03T07:47:53;21.00;99.90
45283;DHT22;31023;44.994;1.796;2022-09-03T07:50:18;20.70;99.90
45283;DHT22;31023;44.994;1.796;2022-09-03T07:52:44;20.70;99.90
45283;DHT22;31023;44.994;1.796;2022-09-03T07:55:11;20.80;99.90
45283;DHT22;31023;44.994;1.796;2022-09-03T07:57:37;20.70;99.90
45283;DHT22;31023;44.994;1.796;2022-09-03T08:00:02;20.80;99.90
45283;DHT22;31023;44.994;1.796;2022-09-03T08:02:28;20.60;99.90
45283;DHT22;31023;44.994;1.796;2022-09-03T08:04:53;20.70;99.90
45283;DHT22;31023;44.994;1.796;2022-09-03T08:07:19;21.00;99.90
45283;DHT22;31023;44.994;1.796;2022-09-03T08:09:44;20.80;99.90
45283;DHT22;31023;44.994;1.796;2022-09-03T08:12:10;22.20;99.90
45283;DHT22;31023;44.994;1.796;2022-09-03T08:14:35;21.80;99.90
45283;DHT22;31023;44.994;1.796;2022-09-03T08:17:01;21.80;99.90
45283;DHT22;31023;44.994;1.796;2022-09-03T08:19:26;21.50;99.90
45283;DHT22;31023;44.994;1.796;2022-09-03T08:21:52;25.10;99.90
45283;DHT22;31023;44.994;1.796;2022-09-03T08:24:17;27.60;99.90
45283;DHT22;31023;44.994;1.796;2022-09-03T08:26:46;27.30;99.90
45283;DHT22;31023;44.994;1.796;2022-09-03T08:29:11;26.50;99.90
45283;DHT22;31023;44.994;1.796;2022-09-03T08:31:37;27.90;99.90
45283;DHT22;31023;44.994;1.796;2022-09-03T08:34:04;25.90;99.50
45283;DHT22;31023;44.994;1.796;2022-09-03T08:36:32;27.70;99.90
45283;DHT22;31023;44.994;1.796;2022-09-03T08:38:59;27.00;99.50
45283;DHT22;31023;44.994;1.796;2022-09-03T08:49:18;22.10;99.90
45283;DHT22;31023;44.994;1.796;2022-09-03T08:51:45;22.10;99.90
45283;DHT22;31023;44.994;1.796;2022-09-03T08:54:12;22.00;99.90
45283;DHT22;31023;44.994;1.796;2022-09-03T08:56:38;22.20;99.90
45283;DHT22;31023;44.994;1.796;2022-09-03T08:59:05;22.50;99.90
45283;DHT22;31023;44.994;1.796;2022-09-03T09:06:34;22.10;99.90
45283;DHT22;31023;44.994;1.796;2022-09-03T09:14:06;22.10;99.90
45283;DHT22;31023;44.994;1.796;2022-09-03T09:24:16;27.90;99.90
45283;DHT22;31023;44.994;1.796;2022-09-03T09:26:46;29.20;97.80
45283;DHT22;31023;44.994;1.796;2022-09-03T09:29:12;28.90;96.50
45283;DHT22;31023;44.994;1.796;2022-09-03T09:31:38;29.30;94.90
45283;DHT22;31023;44.994;1.796;2022-09-03T09:34:06;30.80;92.40
45283;DHT22;31023;44.994;1.796;2022-09-03T09:36:35;29.20;90.20
45283;DHT22;31023;44.994;1.796;2022-09-03T09:39:08;27.60;93.00
45283;DHT22;31023;44.994;1.796;2022-09-03T09:41:34;24.90;98.40
45283;DHT22;31023;44.994;1.796;2022-09-03T09:44:00;24.20;99.90
45283;DHT22;31023;44.994;1.796;2022-09-03T09:46:29;24.10;99.90
45283;DHT22;31023;44.994;1.796;2022-09-03T09:48:57;25.00;99.90
45283;DHT22;31023;44.994;1.796;2022-09-03T09:53:59;26.70;96.20
45283;DHT22;31023;44.994;1.796;2022-09-03T09:56:25;26.00;98.20
45283;DHT22;31023;44.994;1.796;2022-09-03T09:59:03;29.40;94.30
45283;DHT22;31023;44.994;1.796;2022-09-03T10:01:29;30.10;88.00
45283;DHT22;31023;44.994;1.796;2022-09-03T10:03:57;28.20;90.70
45283;DHT22;31023;44.994;1.796;2022-09-03T10:06:29;26.00;94.40
45283;DHT22;31023;44.994;1.796;2022-09-03T10:09:15;25.20;97.20
45283;DHT22;31023;44.994;1.796;2022-09-03T10:11:45;25.10;97.90
45283;DHT22;31023;44.994;1.796;2022-09-03T10:16:47;24.80;97.90
45283;DHT22;31023;44.994;1.796;2022-09-03T10:19:16;24.80;98.50
45283;DHT22;31023;44.994;1.796;2022-09-03T10:21:44;25.10;97.90
45283;DHT22;31023;44.994;1.796;2022-09-03T10:26:43;24.70;98.90
45283;DHT22;31023;44.994;1.796;2022-09-03T10:29:14;24.10;99.20
45283;DHT22;31023;44.994;1.796;2022-09-03T10:34:31;23.90;99.90
45283;DHT22;31023;44.994;1.796;2022-09-03T10:44:47;25.10;98.30
45283;DHT22;31023;44.994;1.796;2022-09-03T10:55:39;24.90;95.30
45283;DHT22;31023;44.994;1.796;2022-09-03T11:00:32;25.40;96.50
45283;DHT22;31023;44.994;1.796;2022-09-03T11:08:08;26.10;95.30
45283;DHT22;31023;44.994;1.796;2022-09-03T11:10:41;26.20;95.70
45283;DHT22;31023;44.994;1.796;2022-09-03T11:13:09;26.00;94.40
45283;DHT22;31023;44.994;1.796;2022-09-03T11:20:43;25.50;92.90
45283;DHT22;31023;44.994;1.796;2022-09-03T11:23:09;25.20;94.00
45283;DHT22;31023;44.994;1.796;2022-09-03T11:25:50;25.10;94.30
45283;DHT22;31023;44.994;1.796;2022-09-03T11:28:22;25.40;95.70
45283;DHT22;31023;44.994;1.796;2022-09-03T11:33:22;25.30;93.40
45283;DHT22;31023;44.994;1.796;2022-09-03T11:35:54;24.70;94.00
45283;DHT22;31023;44.994;1.796;2022-09-03T11:38:21;24.80;95.00
45283;DHT22;31023;44.994;1.796;2022-09-03T11:45:48;25.40;90.80
45283;DHT22;31023;44.994;1.796;2022-09-03T11:48:27;25.40;90.80
45283;DHT22;31023;44.994;1.796;2022-09-03T11:50:56;25.60;90.10
45283;DHT22;31023;44.994;1.796;2022-09-03T11:53:25;25.50;88.00
45283;DHT22;31023;44.994;1.796;2022-09-03T11:58:25;25.70;90.60
45283;DHT22;31023;44.994;1.796;2022-09-03T12:00:53;25.50;89.70
45283;DHT22;31023;44.994;1.796;2022-09-03T12:08:53;26.30;88.30
45283;DHT22;31023;44.994;1.796;2022-09-03T12:22:11;26.50;89.60
45283;DHT22;31023;44.994;1.796;2022-09-03T12:24:39;26.50;89.30
45283;DHT22;31023;44.994;1.796;2022-09-03T12:27:09;26.20;84.60
45283;DHT22;31023;44.994;1.796;2022-09-03T12:29:37;25.90;87.60
45283;DHT22;31023;44.994;1.796;2022-09-03T12:32:07;25.90;87.70
45283;DHT22;31023;44.994;1.796;2022-09-03T12:34:33;26.10;90.30
45283;DHT22;31023;44.994;1.796;2022-09-03T12:36:58;26.30;88.20
45283;DHT22;31023;44.994;1.796;2022-09-03T12:39:25;26.30;86.80
45283;DHT22;31023;44.994;1.796;2022-09-03T12:42:04;26.00;85.20
45283;DHT22;31023;44.994;1.796;2022-09-03T12:49:31;25.90;87.80
45283;DHT22;31023;44.994;1.796;2022-09-03T12:52:02;26.10;86.90
45283;DHT22;31023;44.994;1.796;2022-09-03T12:54:29;26.60;87.40
45283;DHT22;31023;44.994;1.796;2022-09-03T12:56:55;26.60;85.00
45283;DHT22;31023;44.994;1.796;2022-09-03T12:59:21;26.10;85.40
45283;DHT22;31023;44.994;1.796;2022-09-03T13:01:52;25.80;86.20
45283;DHT22;31023;44.994;1.796;2022-09-03T13:04:23;25.80;84.60
45283;DHT22;31023;44.994;1.796;2022-09-03T13:06:52;25.80;85.70
45283;DHT22;31023;44.994;1.796;2022-09-03T13:09:21;25.50;84.30
45283;DHT22;31023;44.994;1.796;2022-09-03T13:11:47;25.50;83.90
45283;DHT22;31023;44.994;1.796;2022-09-03T13:14:15;25.50;84.10
45283;DHT22;31023;44.994;1.796;2022-09-03T13:29:39;26.00;83.00
45283;DHT22;31023;44.994;1.796;2022-09-03T13:34:49;26.10;80.50
45283;DHT22;31023;44.994;1.796;2022-09-03T13:37:22;26.20;83.10
45283;DHT22;31023;44.994;1.796;2022-09-03T13:39:56;26.30;81.10
45283;DHT22;31023;44.994;1.796;2022-09-03T13:42:32;26.30;80.80
45283;DHT22;31023;44.994;1.796;2022-09-03T13:47:45;26.80;79.90
45283;DHT22;31023;44.994;1.796;2022-09-03T13:50:37;27.00;77.00
45283;DHT22;31023;44.994;1.796;2022-09-03T13:53:06;26.60;76.40
45283;DHT22;31023;44.994;1.796;2022-09-03T13:55:42;26.00;78.20
45283;DHT22;31023;44.994;1.796;2022-09-03T14:13:21;26.10;78.50
45283;DHT22;31023;44.994;1.796;2022-09-03T14:18:34;25.90;77.70
45283;DHT22;31023;44.994;1.796;2022-09-03T14:23:53;26.10;79.30
45283;DHT22;31023;44.994;1.796;2022-09-03T14:26:29;26.20;79.10
45283;DHT22;31023;44.994;1.796;2022-09-03T14:28:59;26.10;78.10
45283;DHT22;31023;44.994;1.796;2022-09-03T14:34:06;25.70;77.80
45283;DHT22;31023;44.994;1.796;2022-09-03T14:36:41;25.60;79.90
45283;DHT22;31023;44.994;1.796;2022-09-03T14:57:12;25.80;78.70
45283;DHT22;31023;44.994;1.796;2022-09-03T15:07:32;26.00;79.60
45283;DHT22;31023;44.994;1.796;2022-09-03T15:12:38;25.70;79.90
45283;DHT22;31023;44.994;1.796;2022-09-03T15:15:09;25.40;80.20
45283;DHT22;31023;44.994;1.796;2022-09-03T15:17:47;25.20;77.40
45283;DHT22;31023;44.994;1.796;2022-09-03T15:28:04;24.70;78.20
45283;DHT22;31023;44.994;1.796;2022-09-03T15:30:43;24.60;76.20
45283;DHT22;31023;44.994;1.796;2022-09-03T15:33:12;24.60;79.50
45283;DHT22;31023;44.994;1.796;2022-09-03T15:35:49;24.60;78.90
45283;DHT22;31023;44.994;1.796;2022-09-03T15:38:59;24.50;79.50
45283;DHT22;31023;44.994;1.796;2022-09-03T15:41:08;24.50;82.50
45283;DHT22;31023;44.994;1.796;2022-09-03T15:43:35;24.50;80.30
45283;DHT22;31023;44.994;1.796;2022-09-03T15:46:09;24.40;82.60
45283;DHT22;31023;44.994;1.796;2022-09-03T15:53:57;24.30;83.40
45283;DHT22;31023;44.994;1.796;2022-09-03T16:06:46;24.10;80.80
45283;DHT22;31023;44.994;1.796;2022-09-03T16:12:09;24.00;83.80
45283;DHT22;31023;44.994;1.796;2022-09-03T16:14:41;24.10;83.40
45283;DHT22;31023;44.994;1.796;2022-09-03T16:19:50;24.00;85.70
45283;DHT22;31023;44.994;1.796;2022-09-03T16:22:25;24.00;81.60
45283;DHT22;31023;44.994;1.796;2022-09-03T16:27:23;24.00;81.80
45283;DHT22;31023;44.994;1.796;2022-09-03T16:29:53;24.00;82.20
45283;DHT22;31023;44.994;1.796;2022-09-03T16:53:14;23.90;82.30
45283;DHT22;31023;44.994;1.796;2022-09-03T16:55:47;23.80;82.30
45283;DHT22;31023;44.994;1.796;2022-09-03T17:01:10;23.70;81.70
45283;DHT22;31023;44.994;1.796;2022-09-03T17:06:38;23.70;82.70
45283;DHT22;31023;44.994;1.796;2022-09-03T17:09:24;23.70;82.20
45283;DHT22;31023;44.994;1.796;2022-09-03T17:33:05;23.20;83.80
45283;DHT22;31023;44.994;1.796;2022-09-03T17:56:28;22.70;85.50
45283;DHT22;31023;44.994;1.796;2022-09-03T17:59:02;22.70;85.10
45283;DHT22;31023;44.994;1.796;2022-09-03T18:01:31;22.50;85.30
45283;DHT22;31023;44.994;1.796;2022-09-03T18:04:01;22.50;86.40
45283;DHT22;31023;44.994;1.796;2022-09-03T18:06:41;22.60;85.20
45283;DHT22;31023;44.994;1.796;2022-09-03T18:14:21;22.50;84.10
45283;DHT22;31023;44.994;1.796;2022-09-03T18:16:51;22.50;84.10
45283;DHT22;31023;44.994;1.796;2022-09-03T18:21:45;22.30;84.90
45283;DHT22;31023;44.994;1.796;2022-09-03T18:24:51;22.10;85.80
45283;DHT22;31023;44.994;1.796;2022-09-03T18:30:20;21.90;86.70
45283;DHT22;31023;44.994;1.796;2022-09-03T18:33:05;22.00;87.20
45283;DHT22;31023;44.994;1.796;2022-09-03T18:35:49;22.00;87.00
45283;DHT22;31023;44.994;1.796;2022-09-03T18:38:34;21.90;87.30
45283;DHT22;31023;44.994;1.796;2022-09-03T18:50:28;21.60;89.40
45283;DHT22;31023;44.994;1.796;2022-09-03T18:53:26;21.50;89.60
45283;DHT22;31023;44.994;1.796;2022-09-03T18:59:19;21.50;90.40
45283;DHT22;31023;44.994;1.796;2022-09-03T19:02:11;21.50;90.40
45283;DHT22;31023;44.994;1.796;2022-09-03T19:08:01;21.60;90.70
45283;DHT22;31023;44.994;1.796;2022-09-03T19:10:53;21.50;90.80
45283;DHT22;31023;44.994;1.796;2022-09-03T19:13:38;21.40;91.00
45283;DHT22;31023;44.994;1.796;2022-09-03T19:22:09;21.40;91.60
45283;DHT22;31023;44.994;1.796;2022-09-03T19:24:59;21.40;91.90
45283;DHT22;31023;44.994;1.796;2022-09-03T19:27:50;21.30;92.00
45283;DHT22;31023;44.994;1.796;2022-09-03T19:34:03;21.20;92.50
45283;DHT22;31023;44.994;1.796;2022-09-03T19:39:52;21.20;92.80
45283;DHT22;31023;44.994;1.796;2022-09-03T19:43:03;21.20;92.90
45283;DHT22;31023;44.994;1.796;2022-09-03T19:48:42;21.00;93.30
45283;DHT22;31023;44.994;1.796;2022-09-03T19:51:34;21.10;93.30
45283;DHT22;31023;44.994;1.796;2022-09-03T19:54:21;21.00;93.40
45283;DHT22;31023;44.994;1.796;2022-09-03T19:57:06;21.10;93.50
45283;DHT22;31023;44.994;1.796;2022-09-03T19:59:51;21.10;93.60
45283;DHT22;31023;44.994;1.796;2022-09-03T20:02:36;21.00;93.70
45283;DHT22;31023;44.994;1.796;2022-09-03T20:05:20;21.00;93.80
45283;DHT22;31023;44.994;1.796;2022-09-03T20:08:05;21.00;93.80
45283;DHT22;31023;44.994;1.796;2022-09-03T20:10:51;21.00;94.00
45283;DHT22;31023;44.994;1.796;2022-09-03T20:13:18;20.90;94.00
45283;DHT22;31023;44.994;1.796;2022-09-03T20:20:47;20.90;94.60
45283;DHT22;31023;44.994;1.796;2022-09-03T20:23:18;20.90;94.40
45283;DHT22;31023;44.994;1.796;2022-09-03T20:30:58;20.80;94.90
45283;DHT22;31023;44.994;1.796;2022-09-03T20:35:51;20.60;95.40
45283;DHT22;31023;44.994;1.796;2022-09-03T20:38:27;20.60;95.50
45283;DHT22;31023;44.994;1.796;2022-09-03T20:43:40;20.60;95.80
45283;DHT22;31023;44.994;1.796;2022-09-03T20:49:14;20.50;96.20
45283;DHT22;31023;44.994;1.796;2022-09-03T20:54:21;20.30;97.00
45283;DHT22;31023;44.994;1.796;2022-09-03T21:07:10;20.00;99.00
45283;DHT22;31023;44.994;1.796;2022-09-03T21:14:37;19.90;99.70
45283;DHT22;31023;44.994;1.796;2022-09-03T21:25:12;19.90;99.90
45283;DHT22;31023;44.994;1.796;2022-09-03T21:27:44;19.90;99.90
45283;DHT22;31023;44.994;1.796;2022-09-03T21:30:14;19.70;99.90
45283;DHT22;31023;44.994;1.796;2022-09-03T21:38:06;19.40;99.90
45283;DHT22;31023;44.994;1.796;2022-09-03T21:40:33;19.40;99.90
45283;DHT22;31023;44.994;1.796;2022-09-03T21:43:10;19.50;99.90
45283;DHT22;31023;44.994;1.796;2022-09-03T21:45:43;19.40;99.90
45283;DHT22;31023;44.994;1.796;2022-09-03T21:48:13;19.40;99.90
45283;DHT22;31023;44.994;1.796;2022-09-03T21:50:48;19.30;99.90
45283;DHT22;31023;44.994;1.796;2022-09-03T21:55:59;19.10;99.90
45283;DHT22;31023;44.994;1.796;2022-09-03T22:01:13;19.10;99.90
45283;DHT22;31023;44.994;1.796;2022-09-03T22:03:41;19.10;99.90
45283;DHT22;31023;44.994;1.796;2022-09-03T22:06:09;19.10;99.90
45283;DHT22;31023;44.994;1.796;2022-09-03T22:11:15;19.10;99.90
45283;DHT22;31023;44.994;1.796;2022-09-03T22:13:48;19.10;99.90
45283;DHT22;31023;44.994;1.796;2022-09-03T22:18:42;18.90;99.90
45283;DHT22;31023;44.994;1.796;2022-09-03T22:21:28;19.00;99.90
45283;DHT22;31023;44.994;1.796;2022-09-03T22:29:00;18.80;99.90
45283;DHT22;31023;44.994;1.796;2022-09-03T22:33:57;18.80;99.90
45283;DHT22;31023;44.994;1.796;2022-09-03T22:36:27;18.80;99.90
45283;DHT22;31023;44.994;1.796;2022-09-03T22:46:54;18.60;99.90
45283;DHT22;31023;44.994;1.796;2022-09-03T22:54:42;18.40;99.90
45283;DHT22;31023;44.994;1.796;2022-09-03T22:57:09;18.40;99.90
45283;DHT22;31023;44.994;1.796;2022-09-03T22:59:50;18.40;99.90
45283;DHT22;31023;44.994;1.796;2022-09-03T23:02:23;18.30;99.90
45283;DHT22;31023;44.994;1.796;2022-09-03T23:04:55;18.30;99.90
45283;DHT22;31023;44.994;1.796;2022-09-03T23:10:06;18.30;99.90
45283;DHT22;31023;44.994;1.796;2022-09-03T23:12:38;18.20;99.90
45283;DHT22;31023;44.994;1.796;2022-09-03T23:15:05;18.10;99.90
45283;DHT22;31023;44.994;1.796;2022-09-03T23:17:34;18.10;99.90